Time;durP1;ratioP1;P1;durP2;ratioP2;P2;SDS_P1;SDS_P2;PMS_P1;PMS_P2;Temp;Humidity;BMP_temperature;BMP_pressure;BME280_temperature;BME280_humidity;BME280_pressure;Samples;Min_cycle;Max_cycle;Signal;HPM_P1;HPM_P2
2021/11/27 00:00:47;;;;;;;4.78;3.97;;;2.70;99.90;;;;;;5056564;28;20205;-84
2021/11/27 00:03:15;;;;;;;3.97;3.30;;;2.70;99.90;;;;;;5059805;28;20215;-84
2021/11/27 00:05:44;;;;;;;3.40;3.10;;;2.70;99.90;;;;;;5059491;28;20234;-83
2021/11/27 00:08:12;;;;;;;1.88;1.75;;;2.70;99.90;;;;;;5060097;28;20211;-84
2021/11/27 00:10:41;;;;;;;3.17;2.85;;;2.60;99.90;;;;;;5059137;28;20207;-85
2021/11/27 00:13:08;;;;;;;5.05;3.55;;;2.60;99.90;;;;;;5057616;28;20198;-84
2021/11/27 00:15:36;;;;;;;4.78;3.70;;;2.60;99.90;;;;;;5059575;28;20605;-84
2021/11/27 00:18:04;;;;;;;3.85;3.55;;;2.70;99.90;;;;;;5058925;28;20693;-84
2021/11/27 00:20:34;;;;;;;4.18;2.80;;;2.60;99.90;;;;;;5059582;28;20210;-84
2021/11/27 00:23:02;;;;;;;4.50;2.80;;;2.70;99.90;;;;;;5060037;28;20209;-84
2021/11/27 00:25:29;;;;;;;4.80;3.55;;;2.60;99.90;;;;;;5059347;28;20707;-84
2021/11/27 00:27:56;;;;;;;3.72;3.13;;;2.60;99.90;;;;;;5059566;28;20206;-83
2021/11/27 00:30:28;;;;;;;2.83;2.63;;;2.70;99.90;;;;;;5058103;28;20214;-84
2021/11/27 00:32:55;;;;;;;3.60;2.83;;;2.60;99.90;;;;;;5059956;28;20206;-84
2021/11/27 00:35:22;;;;;;;4.88;4.35;;;2.60;99.90;;;;;;5060720;28;20285;-85
2021/11/27 00:37:51;;;;;;;7.32;3.85;;;2.50;99.90;;;;;;5059636;28;20579;-85
2021/11/27 00:40:20;;;;;;;5.88;3.92;;;2.60;99.90;;;;;;5058107;28;20210;-85
2021/11/27 00:42:47;;;;;;;3.97;3.67;;;2.60;99.90;;;;;;5058491;28;20577;-84
2021/11/27 00:45:16;;;;;;;5.45;4.95;;;2.60;99.90;;;;;;5059198;28;20218;-85
2021/11/27 00:47:46;;;;;;;4.25;3.47;;;2.50;99.90;;;;;;5059266;28;20205;-84
2021/11/27 00:50:15;;;;;;;5.85;4.18;;;2.50;99.90;;;;;;5058914;28;20207;-84
2021/11/27 00:52:42;;;;;;;3.83;3.50;;;2.50;99.90;;;;;;5058894;28;20224;-84
2021/11/27 00:55:10;;;;;;;4.57;3.90;;;2.40;99.90;;;;;;5058640;28;20202;-84
2021/11/27 00:57:40;;;;;;;4.70;4.13;;;2.40;99.90;;;;;;5059244;28;20206;-84
2021/11/27 01:00:09;;;;;;;4.00;3.45;;;2.40;99.90;;;;;;5059243;28;20210;-83
2021/11/27 01:02:37;;;;;;;6.07;4.47;;;2.50;99.90;;;;;;5058913;28;20195;-85
2021/11/27 01:05:05;;;;;;;5.38;4.18;;;2.50;99.90;;;;;;5061360;28;20247;-84
2021/11/27 01:07:32;;;;;;;5.53;4.15;;;2.50;99.90;;;;;;5060688;28;20658;-84
2021/11/27 01:09:59;;;;;;;5.15;4.20;;;2.60;99.90;;;;;;5059826;28;20214;-85
2021/11/27 01:12:26;;;;;;;5.15;4.03;;;2.60;99.90;;;;;;5063686;28;20221;-85
2021/11/27 01:14:54;;;;;;;4.35;3.97;;;2.50;99.90;;;;;;5066561;28;20212;-85
2021/11/27 01:17:21;;;;;;;5.13;4.70;;;2.60;99.90;;;;;;5067857;28;20248;-84
2021/11/27 01:19:48;;;;;;;5.60;4.30;;;2.60;99.90;;;;;;5067159;28;20207;-84
2021/11/27 01:22:18;;;;;;;4.55;4.07;;;2.60;99.90;;;;;;5066937;28;20211;-84
2021/11/27 01:24:45;;;;;;;4.47;4.07;;;2.70;99.90;;;;;;5048979;28;20243;-84
2021/11/27 01:27:12;;;;;;;6.88;4.63;;;2.70;99.90;;;;;;5049858;28;20230;-85
2021/11/27 01:29:41;;;;;;;4.80;4.25;;;2.80;99.90;;;;;;5066075;28;20212;-85
2021/11/27 01:32:13;;;;;;;5.22;4.82;;;2.70;99.90;;;;;;5066741;28;20252;-84
2021/11/27 01:34:40;;;;;;;3.88;3.58;;;2.70;99.90;;;;;;5065376;28;20207;-85
2021/11/27 01:37:07;;;;;;;5.05;4.53;;;2.80;99.90;;;;;;5065119;28;20253;-85
2021/11/27 01:39:34;;;;;;;4.43;3.95;;;2.80;99.90;;;;;;5065208;28;20211;-85
2021/11/27 01:42:01;;;;;;;4.40;4.10;;;2.70;99.90;;;;;;5064729;28;20203;-85
2021/11/27 01:44:28;;;;;;;3.92;3.63;;;2.60;99.90;;;;;;5064802;28;20203;-84
2021/11/27 01:46:55;;;;;;;4.63;4.13;;;2.60;99.90;;;;;;5065168;28;20245;-82
2021/11/27 01:49:24;;;;;;;5.95;4.70;;;2.70;99.90;;;;;;5066304;28;20209;-82
2021/11/27 01:51:51;;;;;;;4.22;3.83;;;2.70;99.90;;;;;;5064538;28;20202;-82
2021/11/27 01:54:17;;;;;;;5.10;4.70;;;2.70;99.90;;;;;;5064950;28;20217;-82
2021/11/27 01:56:47;;;;;;;4.57;4.13;;;2.70;99.90;;;;;;5065606;28;20708;-81
2021/11/27 01:59:16;;;;;;;5.45;4.30;;;2.70;99.90;;;;;;5067308;28;20218;-83
2021/11/27 02:01:44;;;;;;;7.53;4.53;;;2.70;99.90;;;;;;5065259;28;20209;-82
2021/11/27 02:04:13;;;;;;;5.15;4.35;;;2.70;99.90;;;;;;5063964;28;20745;-82
2021/11/27 02:06:43;;;;;;;4.30;3.90;;;2.80;99.90;;;;;;5063233;28;20237;-82
2021/11/27 02:09:14;;;;;;;5.47;4.93;;;2.80;99.90;;;;;;5062151;28;20210;-82
2021/11/27 02:11:42;;;;;;;3.67;3.28;;;2.70;99.90;;;;;;5062789;28;20203;-82
2021/11/27 02:14:09;;;;;;;5.72;5.05;;;2.70;99.90;;;;;;5062873;28;20204;-82
2021/11/27 02:16:38;;;;;;;4.72;4.32;;;2.70;99.90;;;;;;5062879;28;20231;-82
2021/11/27 02:19:05;;;;;;;4.35;3.95;;;2.60;99.90;;;;;;5063131;28;20225;-83
2021/11/27 02:21:33;;;;;;;4.70;4.25;;;2.60;99.90;;;;;;5066354;28;20217;-81
2021/11/27 02:24:00;;;;;;;5.18;4.68;;;2.70;99.90;;;;;;5075098;28;20201;-80
2021/11/27 02:26:31;;;;;;;4.78;4.20;;;2.60;99.90;;;;;;5074463;28;20235;-80
2021/11/27 02:29:01;;;;;;;4.35;3.95;;;2.70;99.90;;;;;;5073281;28;20297;-82
2021/11/27 02:31:28;;;;;;;4.95;4.53;;;2.80;99.90;;;;;;5063729;28;20217;-82
2021/11/27 02:33:56;;;;;;;6.13;4.55;;;2.80;99.90;;;;;;5064071;28;20664;-81
2021/11/27 02:36:23;;;;;;;4.45;4.10;;;2.80;99.90;;;;;;5061929;28;20219;-81
2021/11/27 02:38:53;;;;;;;4.80;4.40;;;2.80;99.90;;;;;;5062872;28;20215;-83
2021/11/27 02:41:20;;;;;;;5.10;4.60;;;2.80;99.90;;;;;;5062609;28;20212;-82
2021/11/27 02:43:47;;;;;;;6.57;4.70;;;2.90;99.90;;;;;;5062436;28;20707;-81
2021/11/27 02:46:14;;;;;;;4.68;3.83;;;2.90;99.90;;;;;;5062429;28;20235;-83
2021/11/27 02:48:42;;;;;;;5.32;4.43;;;2.80;99.90;;;;;;5042860;28;20209;-83
2021/11/27 02:51:09;;;;;;;7.07;4.50;;;2.80;99.90;;;;;;5042677;28;20214;-82
2021/11/27 02:53:36;;;;;;;4.18;3.20;;;2.90;99.90;;;;;;5043626;28;20208;-83
2021/11/27 02:56:05;;;;;;;4.53;3.95;;;2.80;99.90;;;;;;5042212;28;20231;-83
2021/11/27 02:58:32;;;;;;;3.75;3.38;;;2.70;99.90;;;;;;5060847;28;20202;-82
2021/11/27 03:01:00;;;;;;;3.58;3.28;;;2.70;99.90;;;;;;5061553;28;20208;-82
2021/11/27 03:03:27;;;;;;;5.10;4.15;;;2.70;99.90;;;;;;5061948;28;20206;-83
2021/11/27 03:05:54;;;;;;;2.97;2.78;;;2.70;99.90;;;;;;5061716;28;20708;-82
2021/11/27 03:08:21;;;;;;;4.72;4.30;;;2.70;99.90;;;;;;5061530;28;20198;-82
2021/11/27 03:10:48;;;;;;;3.75;3.40;;;2.70;99.90;;;;;;5061546;28;20306;-82
2021/11/27 03:13:16;;;;;;;4.40;3.85;;;2.80;99.90;;;;;;5061817;28;20705;-82
2021/11/27 03:15:43;;;;;;;6.43;5.32;;;2.80;99.90;;;;;;5062329;28;20224;-83
2021/11/27 03:18:10;;;;;;;3.65;3.33;;;2.90;99.90;;;;;;5061535;28;20216;-81
2021/11/27 03:20:38;;;;;;;3.55;3.20;;;2.90;99.90;;;;;;5060954;28;20195;-82
2021/11/27 03:23:05;;;;;;;5.25;3.88;;;2.90;99.90;;;;;;5061635;28;20208;-82
2021/11/27 03:25:32;;;;;;;4.15;2.60;;;2.90;99.90;;;;;;5061366;28;20242;-83
2021/11/27 03:27:59;;;;;;;4.65;4.25;;;3.00;99.90;;;;;;5061378;28;20222;-82
2021/11/27 03:30:27;;;;;;;2.47;2.38;;;3.00;99.90;;;;;;5060788;28;20613;-83
2021/11/27 03:32:54;;;;;;;3.28;3.05;;;3.10;99.90;;;;;;5061366;28;20203;-82
2021/11/27 03:35:21;;;;;;;6.28;3.65;;;3.20;99.90;;;;;;5060684;28;20208;-81
2021/11/27 03:37:48;;;;;;;3.90;3.35;;;3.10;99.90;;;;;;5056065;28;20206;-82
2021/11/27 03:40:16;;;;;;;3.40;3.00;;;3.10;99.90;;;;;;5059919;28;20558;-82
2021/11/27 03:42:43;;;;;;;4.57;3.55;;;3.10;99.90;;;;;;5060244;28;20216;-81
2021/11/27 03:45:13;;;;;;;5.10;4.45;;;3.00;99.90;;;;;;5059799;28;20199;-82
2021/11/27 03:47:56;;;;;;;4.07;3.67;;;2.90;99.90;;;;;;5060145;28;20204;-82
2021/11/27 03:50:23;;;;;;;4.50;4.00;;;2.90;99.90;;;;;;5059892;28;20204;-82
2021/11/27 03:52:49;;;;;;;5.43;3.40;;;2.90;99.90;;;;;;5059597;28;20206;-82
2021/11/27 03:55:16;;;;;;;4.32;3.85;;;2.90;99.90;;;;;;5059839;28;20213;-82
2021/11/27 03:57:43;;;;;;;4.45;2.42;;;2.80;99.90;;;;;;5060050;28;20213;-81
2021/11/27 04:00:10;;;;;;;5.10;3.47;;;2.80;99.90;;;;;;5059912;28;20202;-81
2021/11/27 04:02:37;;;;;;;4.15;3.70;;;2.70;99.90;;;;;;5059730;28;20203;-81
2021/11/27 04:05:06;;;;;;;2.45;1.90;;;2.70;99.90;;;;;;5060131;28;20205;-82
2021/11/27 04:07:33;;;;;;;2.42;2.20;;;2.70;99.90;;;;;;5058741;28;20221;-82
2021/11/27 04:10:00;;;;;;;2.63;2.42;;;2.60;99.90;;;;;;5059195;28;20203;-82
2021/11/27 04:12:26;;;;;;;3.90;3.05;;;2.60;99.90;;;;;;5058821;28;20200;-82
2021/11/27 04:14:53;;;;;;;2.28;2.08;;;2.60;99.90;;;;;;5060481;28;20216;-83
2021/11/27 04:17:20;;;;;;;4.95;4.57;;;2.70;99.90;;;;;;5059320;28;20230;-82
2021/11/27 04:19:47;;;;;;;2.88;2.58;;;2.70;99.90;;;;;;5059402;28;20214;-82
2021/11/27 04:22:15;;;;;;;2.45;2.25;;;2.70;99.90;;;;;;5059299;28;20221;-81
2021/11/27 04:24:42;;;;;;;2.30;1.83;;;2.70;99.90;;;;;;5059540;28;20209;-82
2021/11/27 04:27:09;;;;;;;1.75;1.65;;;2.80;99.90;;;;;;5059933;28;20230;-83
2021/11/27 04:29:35;;;;;;;1.98;1.88;;;2.70;99.90;;;;;;5060370;28;20728;-82
2021/11/27 04:32:02;;;;;;;1.58;1.45;;;2.80;99.90;;;;;;5058858;28;20206;-82
2021/11/27 04:34:29;;;;;;;5.72;2.30;;;2.80;99.90;;;;;;5060946;28;20317;-82
2021/11/27 04:36:56;;;;;;;2.00;1.90;;;2.80;99.90;;;;;;5059537;28;20229;-82
2021/11/27 04:39:24;;;;;;;1.17;1.08;;;2.80;99.90;;;;;;5059906;28;20204;-82
2021/11/27 04:41:51;;;;;;;1.70;1.60;;;2.90;99.90;;;;;;5059340;28;20203;-82
2021/11/27 04:44:17;;;;;;;1.90;1.50;;;2.90;99.90;;;;;;5060555;28;20203;-82
2021/11/27 04:46:44;;;;;;;1.13;0.95;;;2.90;99.90;;;;;;5059825;28;20215;-81
2021/11/27 04:49:11;;;;;;;2.33;2.13;;;2.90;99.90;;;;;;5060239;28;20226;-82
2021/11/27 04:51:37;;;;;;;4.78;1.40;;;3.00;99.90;;;;;;5060065;28;20202;-82
2021/11/27 04:54:04;;;;;;;1.20;1.10;;;3.00;99.90;;;;;;5060680;28;20210;-83
2021/11/27 04:56:32;;;;;;;2.60;1.60;;;3.10;99.90;;;;;;5059632;28;20220;-82
2021/11/27 04:58:59;;;;;;;1.92;1.83;;;3.10;99.90;;;;;;5060478;28;20213;-82
2021/11/27 05:01:26;;;;;;;1.52;1.42;;;3.10;99.90;;;;;;5062762;28;20207;-82
2021/11/27 05:03:53;;;;;;;2.22;2.10;;;3.10;99.90;;;;;;5063106;28;20239;-81
2021/11/27 05:06:20;;;;;;;2.15;1.77;;;3.10;99.90;;;;;;5067579;28;20221;-81
2021/11/27 05:08:46;;;;;;;1.05;0.95;;;3.10;99.90;;;;;;5073785;28;20542;-82
2021/11/27 05:11:13;;;;;;;1.75;1.55;;;3.00;99.90;;;;;;5072830;28;20311;-82
2021/11/27 05:13:41;;;;;;;1.40;1.30;;;3.00;99.90;;;;;;5073488;28;20219;-81
2021/11/27 05:16:09;;;;;;;1.67;1.58;;;3.10;99.90;;;;;;5072796;28;20237;-81
2021/11/27 05:18:36;;;;;;;0.98;0.98;;;3.10;99.90;;;;;;5072720;28;20223;-81
2021/11/27 05:21:03;;;;;;;1.45;1.35;;;3.00;99.90;;;;;;5072026;28;20214;-81
2021/11/27 05:23:30;;;;;;;1.50;1.40;;;3.00;99.90;;;;;;5073170;28;20234;-82
2021/11/27 05:25:57;;;;;;;1.05;0.95;;;3.00;99.90;;;;;;5072568;28;20227;-82
2021/11/27 05:28:24;;;;;;;1.00;1.00;;;3.00;99.90;;;;;;5072252;28;20244;-82
2021/11/27 05:30:53;;;;;;;1.10;1.10;;;3.00;99.90;;;;;;5071846;28;20210;-81
2021/11/27 05:33:24;;;;;;;1.50;1.40;;;3.00;99.90;;;;;;5072584;28;20260;-81
2021/11/27 05:35:52;;;;;;;1.30;1.20;;;3.10;99.90;;;;;;5072158;28;20703;-81
2021/11/27 05:38:18;;;;;;;1.95;1.70;;;3.10;99.90;;;;;;5073026;28;20208;-81
2021/11/27 05:40:46;;;;;;;2.03;1.48;;;3.20;99.90;;;;;;5072048;28;20231;-81
2021/11/27 05:43:13;;;;;;;1.10;1.10;;;3.10;99.90;;;;;;5072075;28;20213;-81
2021/11/27 05:45:40;;;;;;;1.67;1.58;;;3.20;99.90;;;;;;5072154;28;20233;-81
2021/11/27 05:48:08;;;;;;;2.13;1.92;;;3.20;99.90;;;;;;5072301;28;20224;-81
2021/11/27 05:50:34;;;;;;;2.13;1.42;;;3.30;99.90;;;;;;5071421;28;20271;-83
2021/11/27 05:53:01;;;;;;;1.67;1.58;;;3.30;99.90;;;;;;5072243;28;20213;-81
2021/11/27 05:55:30;;;;;;;1.88;1.75;;;3.20;99.90;;;;;;5071850;28;20220;-83
2021/11/27 05:57:57;;;;;;;1.38;1.20;;;3.30;99.90;;;;;;5071115;28;20195;-81
2021/11/27 06:00:24;;;;;;;1.50;1.35;;;3.40;99.90;;;;;;5071126;28;20205;-81
2021/11/27 06:02:50;;;;;;;1.77;1.67;;;3.40;99.90;;;;;;5071320;28;20199;-81
2021/11/27 06:05:19;;;;;;;2.08;1.70;;;3.50;99.90;;;;;;5072277;28;20212;-81
2021/11/27 06:07:45;;;;;;;1.55;1.48;;;3.30;99.90;;;;;;5071913;28;20235;-81
2021/11/27 06:10:12;;;;;;;2.35;1.33;;;3.30;99.90;;;;;;5071048;28;20221;-83
2021/11/27 06:12:39;;;;;;;1.25;1.23;;;3.30;99.90;;;;;;5070926;28;20201;-82
2021/11/27 06:15:06;;;;;;;2.40;2.10;;;3.40;99.90;;;;;;5071798;28;20210;-81
2021/11/27 06:17:34;;;;;;;1.80;1.70;;;3.20;99.90;;;;;;5071471;28;20224;-81
2021/11/27 06:20:01;;;;;;;2.22;2.05;;;3.20;99.90;;;;;;5071981;28;20203;-82
2021/11/27 06:22:29;;;;;;;1.65;1.50;;;3.10;99.90;;;;;;5072468;28;20315;-81
2021/11/27 06:24:56;;;;;;;1.77;1.52;;;3.20;99.90;;;;;;5071753;28;20210;-81
2021/11/27 06:27:23;;;;;;;1.98;1.65;;;3.10;99.90;;;;;;5071212;28;20221;-81
2021/11/27 06:29:50;;;;;;;2.35;2.00;;;3.00;99.90;;;;;;5070790;28;20282;-82
2021/11/27 06:32:22;;;;;;;1.40;1.30;;;3.10;99.90;;;;;;5071160;28;20204;-82
2021/11/27 06:34:49;;;;;;;2.25;2.05;;;3.10;99.90;;;;;;5071323;28;20698;-83
2021/11/27 06:37:16;;;;;;;1.80;1.70;;;3.00;99.90;;;;;;5071448;28;20225;-82
2021/11/27 06:39:44;;;;;;;1.90;1.80;;;3.10;99.90;;;;;;5071698;28;20294;-82
2021/11/27 06:42:11;;;;;;;1.80;1.70;;;3.00;99.90;;;;;;5071390;28;20212;-82
2021/11/27 06:44:40;;;;;;;1.42;1.30;;;2.90;99.90;;;;;;5072070;28;20207;-81
2021/11/27 06:47:07;;;;;;;1.88;1.70;;;3.00;99.90;;;;;;5071651;28;20298;-84
2021/11/27 06:49:34;;;;;;;2.25;1.75;;;2.90;99.90;;;;;;5051190;28;20232;-82
2021/11/27 06:52:00;;;;;;;1.90;1.50;;;2.90;99.90;;;;;;5051378;28;20214;-81
2021/11/27 06:54:27;;;;;;;4.38;2.00;;;2.80;99.90;;;;;;5065141;28;20202;-82
2021/11/27 06:56:55;;;;;;;1.70;1.60;;;2.80;99.90;;;;;;5063467;28;20720;-81
2021/11/27 06:59:22;;;;;;;1.55;1.45;;;2.80;99.90;;;;;;5064483;28;20213;-81
2021/11/27 07:01:49;;;;;;;1.80;1.70;;;2.80;99.90;;;;;;5068489;28;20227;-81
2021/11/27 07:04:17;;;;;;;1.23;1.13;;;2.70;99.90;;;;;;5071268;28;20217;-82
2021/11/27 07:06:44;;;;;;;2.25;1.50;;;2.80;99.90;;;;;;5070595;28;20264;-82
2021/11/27 07:09:11;;;;;;;1.17;1.08;;;2.80;99.90;;;;;;5070537;28;20211;-81
2021/11/27 07:11:38;;;;;;;1.65;1.35;;;2.80;99.90;;;;;;5069816;28;20212;-83
2021/11/27 07:14:07;;;;;;;2.05;1.80;;;2.80;99.90;;;;;;5071254;28;20203;-81
2021/11/27 07:16:33;;;;;;;2.63;1.98;;;2.90;99.90;;;;;;5070451;28;20245;-81
2021/11/27 07:19:00;;;;;;;1.73;1.63;;;2.90;99.90;;;;;;5069559;28;20200;-79
2021/11/27 07:21:27;;;;;;;1.90;1.80;;;2.90;99.90;;;;;;5066550;28;20212;-79
2021/11/27 07:23:54;;;;;;;2.25;1.50;;;2.90;99.90;;;;;;5065971;28;20209;-81
2021/11/27 07:26:22;;;;;;;2.35;1.60;;;2.90;99.90;;;;;;5066882;28;20311;-80
2021/11/27 07:28:49;;;;;;;1.60;1.50;;;2.90;99.90;;;;;;5069828;28;20291;-82
2021/11/27 07:31:17;;;;;;;1.85;1.73;;;3.00;99.90;;;;;;5070138;28;20302;-82
2021/11/27 07:33:44;;;;;;;3.10;2.90;;;3.00;99.90;;;;;;5069780;28;20200;-82
2021/11/27 07:36:11;;;;;;;2.28;2.08;;;3.10;99.90;;;;;;5070135;28;20229;-81
2021/11/27 07:38:38;;;;;;;1.83;1.73;;;3.10;99.90;;;;;;5068975;28;20196;-81
2021/11/27 07:41:06;;;;;;;1.60;1.50;;;3.20;99.90;;;;;;5070407;28;20741;-82
2021/11/27 07:43:34;;;;;;;2.58;2.03;;;3.20;99.90;;;;;;5070287;28;20204;-83
2021/11/27 07:46:01;;;;;;;1.65;1.55;;;3.20;99.90;;;;;;5069463;28;20225;-81
2021/11/27 07:48:31;;;;;;;1.42;1.17;;;3.40;99.90;;;;;;5070497;28;20233;-81
2021/11/27 07:50:58;;;;;;;1.30;1.20;;;3.40;99.90;;;;;;5069942;28;20204;-82
2021/11/27 07:53:25;;;;;;;1.50;1.40;;;3.40;99.90;;;;;;5069816;28;20202;-81
2021/11/27 07:55:52;;;;;;;1.27;1.27;;;3.40;99.90;;;;;;5069820;28;20233;-80
2021/11/27 07:58:19;;;;;;;1.30;1.20;;;3.40;99.90;;;;;;5070113;28;20208;-81
2021/11/27 08:00:45;;;;;;;1.15;1.08;;;3.40;99.90;;;;;;5070685;28;20223;-81
2021/11/27 08:03:12;;;;;;;1.90;1.30;;;3.40;99.90;;;;;;5069757;28;20599;-81
2021/11/27 08:05:40;;;;;;;1.73;1.60;;;3.40;99.90;;;;;;5069325;28;20242;-81
2021/11/27 08:08:07;;;;;;;2.00;1.75;;;3.50;99.90;;;;;;5063447;28;20238;-79
2021/11/27 08:10:34;;;;;;;1.60;1.50;;;3.60;99.90;;;;;;5068859;28;20201;-80
2021/11/27 08:13:01;;;;;;;1.70;1.60;;;3.50;99.90;;;;;;5069707;28;20206;-80
2021/11/27 08:15:27;;;;;;;1.70;1.60;;;3.60;99.90;;;;;;5070620;28;20196;-81
2021/11/27 08:17:54;;;;;;;2.00;1.70;;;3.60;99.90;;;;;;5071059;28;20212;-81
2021/11/27 08:20:21;;;;;;;1.83;1.50;;;3.50;99.90;;;;;;5070437;28;20600;-82
2021/11/27 08:22:49;;;;;;;1.60;1.50;;;3.60;99.90;;;;;;5070761;28;20217;-82
2021/11/27 08:25:16;;;;;;;1.38;1.27;;;3.60;99.90;;;;;;5067646;28;20203;-81
2021/11/27 08:27:43;;;;;;;1.63;1.60;;;3.60;99.90;;;;;;5070532;28;20614;-81
2021/11/27 08:30:11;;;;;;;2.35;2.03;;;3.70;99.90;;;;;;5068801;28;20204;-82
2021/11/27 08:32:48;;;;;;;1.55;1.45;;;3.80;99.90;;;;;;5068586;28;20210;-83
2021/11/27 08:35:15;;;;;;;1.33;1.33;;;3.90;99.90;;;;;;5068963;28;20216;-83
2021/11/27 08:37:43;;;;;;;1.90;1.58;;;4.00;99.90;;;;;;5070169;28;20201;-84
2021/11/27 08:40:13;;;;;;;1.60;1.45;;;4.10;99.90;;;;;;5070060;28;20228;-84
2021/11/27 08:42:42;;;;;;;2.13;1.90;;;4.20;99.90;;;;;;5067427;28;20208;-83
2021/11/27 08:45:10;;;;;;;1.80;1.70;;;4.20;99.90;;;;;;5070758;28;20261;-84
2021/11/27 08:47:36;;;;;;;1.58;1.48;;;4.30;99.90;;;;;;5069710;28;20216;-83
2021/11/27 08:50:04;;;;;;;1.50;1.40;;;4.30;99.90;;;;;;5070071;28;20212;-84
2021/11/27 08:52:31;;;;;;;2.28;2.05;;;4.30;99.90;;;;;;5070181;28;20193;-84
2021/11/27 08:54:58;;;;;;;1.88;1.40;;;4.40;99.90;;;;;;5068113;28;20220;-84
2021/11/27 08:57:26;;;;;;;2.67;2.30;;;4.50;99.90;;;;;;5067952;28;20201;-84
2021/11/27 08:59:53;;;;;;;1.40;1.30;;;4.70;99.90;;;;;;5068829;28;20205;-85
2021/11/27 09:02:20;;;;;;;1.40;1.30;;;4.80;99.90;;;;;;5069724;28;20211;-84
2021/11/27 09:04:50;;;;;;;1.35;1.20;;;4.80;99.90;;;;;;5060287;28;20213;-83
2021/11/27 09:07:17;;;;;;;2.58;1.25;;;5.00;99.90;;;;;;5057696;28;20221;-82
2021/11/27 09:09:45;;;;;;;1.50;1.40;;;5.00;99.90;;;;;;5057011;28;20209;-82
2021/11/27 09:12:14;;;;;;;1.90;1.80;;;5.10;99.90;;;;;;5056077;28;20213;-83
2021/11/27 09:14:42;;;;;;;3.45;1.85;;;5.00;99.90;;;;;;5057255;28;20213;-82
2021/11/27 09:17:09;;;;;;;2.35;1.58;;;5.10;99.90;;;;;;5058542;28;20222;-82
2021/11/27 09:19:36;;;;;;;3.15;1.50;;;5.10;99.90;;;;;;5059947;28;20201;-82
2021/11/27 09:22:04;;;;;;;1.85;1.75;;;5.10;99.90;;;;;;5058385;28;20214;-82
2021/11/27 09:24:31;;;;;;;1.35;1.20;;;5.10;99.90;;;;;;5059154;28;20263;-82
2021/11/27 09:26:58;;;;;;;2.17;1.65;;;5.30;99.90;;;;;;5059460;28;20225;-82
2021/11/27 09:29:25;;;;;;;1.88;1.08;;;5.40;99.90;;;;;;5059611;28;20201;-82
2021/11/27 09:31:53;;;;;;;2.60;1.30;;;5.50;99.90;;;;;;5057854;28;20198;-83
2021/11/27 09:34:20;;;;;;;1.30;1.20;;;5.70;99.90;;;;;;5052138;28;20212;-82
2021/11/27 09:36:48;;;;;;;2.97;1.05;;;5.80;99.90;;;;;;5057149;28;20225;-82
2021/11/27 09:39:16;;;;;;;1.20;1.17;;;5.70;99.90;;;;;;5060549;28;20269;-80
2021/11/27 09:41:45;;;;;;;2.15;1.40;;;5.70;99.90;;;;;;5059285;28;20414;-81
2021/11/27 09:44:14;;;;;;;1.15;0.93;;;5.80;99.90;;;;;;5055192;28;20208;-81
2021/11/27 09:46:42;;;;;;;0.80;0.77;;;5.80;99.90;;;;;;5059305;28;20225;-84
2021/11/27 09:49:17;;;;;;;1.30;1.20;;;5.70;99.90;;;;;;5063673;28;20229;-85
2021/11/27 09:51:45;;;;;;;0.90;0.90;;;5.30;99.90;;;;;;5060637;28;20204;-83
2021/11/27 09:54:17;;;;;;;0.65;0.65;;;5.10;99.90;;;;;;5062283;28;20209;-85
2021/11/27 09:56:43;;;;;;;1.75;1.02;;;5.10;99.90;;;;;;5061684;28;20721;-86
2021/11/27 09:59:14;;;;;;;1.77;1.55;;;5.00;99.90;;;;;;5060324;28;20220;-85
2021/11/27 10:01:45;;;;;;;1.52;1.42;;;5.00;99.90;;;;;;5061867;28;20202;-84
2021/11/27 10:04:16;;;;;;;1.20;0.90;;;5.20;99.90;;;;;;5043332;28;20233;-84
2021/11/27 10:06:45;;;;;;;3.70;1.10;;;5.10;99.90;;;;;;5059740;28;20222;-85
2021/11/27 10:09:13;;;;;;;1.00;0.95;;;5.30;99.90;;;;;;5068699;28;20217;-85
2021/11/27 10:11:41;;;;;;;2.38;1.00;;;5.50;99.90;;;;;;5066091;28;20205;-85
2021/11/27 10:14:08;;;;;;;1.38;1.30;;;5.40;99.90;;;;;;5065670;28;20205;-84
2021/11/27 10:17:06;;;;;;;1.60;1.50;;;5.40;99.90;;;;;;5066194;28;20234;-84
2021/11/27 10:19:54;;;;;;;1.10;1.10;;;5.40;99.90;;;;;;5064465;28;20206;-85
2021/11/27 10:22:24;;;;;;;1.30;1.20;;;5.40;99.90;;;;;;5060972;28;20216;-84
2021/11/27 10:24:51;;;;;;;1.80;1.70;;;5.30;99.90;;;;;;5069512;28;20213;-82
2021/11/27 10:27:21;;;;;;;3.33;1.35;;;5.50;99.90;;;;;;5074292;28;20229;-83
2021/11/27 10:30:04;;;;;;;0.95;0.95;;;5.60;99.90;;;;;;5075801;28;20277;-84
2021/11/27 10:32:36;;;;;;;1.30;1.30;;;5.90;99.90;;;;;;5075728;28;20205;-83
2021/11/27 10:35:07;;;;;;;1.30;1.20;;;6.10;99.90;;;;;;5075247;28;20258;-83
2021/11/27 10:37:38;;;;;;;1.40;1.30;;;6.40;99.90;;;;;;5074860;28;20226;-83
2021/11/27 10:40:08;;;;;;;1.40;1.10;;;6.60;99.90;;;;;;5074807;28;20209;-83
2021/11/27 10:42:36;;;;;;;0.90;0.90;;;6.70;99.90;;;;;;5070257;28;20221;-83
2021/11/27 10:45:11;;;;;;;2.17;1.45;;;6.50;99.90;;;;;;5069508;28;20233;-83
2021/11/27 10:47:38;;;;;;;1.90;1.80;;;6.40;99.90;;;;;;5061616;28;20222;-83
2021/11/27 10:50:08;;;;;;;1.92;1.23;;;6.20;99.90;;;;;;5060717;28;20212;-83
2021/11/27 10:52:38;;;;;;;2.50;1.55;;;6.30;99.90;;;;;;5062845;28;20278;-83
2021/11/27 10:55:17;;;;;;;1.05;0.95;;;6.30;99.90;;;;;;5060940;28;20202;-83
2021/11/27 10:57:44;;;;;;;3.42;1.80;;;6.20;99.90;;;;;;5063963;28;20205;-83
2021/11/27 11:00:26;;;;;;;1.05;1.05;;;6.20;99.90;;;;;;5063883;28;20255;-83
2021/11/27 11:02:55;;;;;;;1.45;1.35;;;6.10;99.90;;;;;;5065040;28;20212;-84
2021/11/27 11:05:32;;;;;;;1.38;1.20;;;6.20;99.90;;;;;;5060997;28;20205;-84
2021/11/27 11:08:00;;;;;;;1.38;1.30;;;6.00;99.90;;;;;;5059717;28;20267;-84
2021/11/27 11:10:32;;;;;;;1.60;1.27;;;6.10;99.90;;;;;;5059266;28;20212;-84
2021/11/27 11:13:01;;;;;;;1.38;1.30;;;5.90;99.90;;;;;;5060842;28;20209;-83
2021/11/27 11:15:30;;;;;;;3.78;1.60;;;5.80;99.90;;;;;;5060674;28;20212;-84
2021/11/27 11:18:18;;;;;;;2.88;1.35;;;5.80;99.90;;;;;;5059799;28;20232;-84
2021/11/27 11:20:54;;;;;;;2.45;1.30;;;5.50;99.90;;;;;;5054624;28;20194;-84
2021/11/27 11:23:23;;;;;;;2.08;1.70;;;5.60;99.90;;;;;;5059338;28;20584;-81
2021/11/27 11:26:00;;;;;;;2.47;1.55;;;5.60;99.90;;;;;;5060737;28;20233;-82
2021/11/27 11:28:28;;;;;;;1.58;1.48;;;5.60;99.90;;;;;;5060647;28;20221;-82
2021/11/27 11:30:57;;;;;;;1.38;1.05;;;5.50;99.90;;;;;;5062962;28;20202;-81
2021/11/27 11:33:24;;;;;;;1.65;1.55;;;5.60;99.90;;;;;;5064317;28;20214;-81
2021/11/27 11:35:53;;;;;;;1.65;1.50;;;5.70;99.90;;;;;;5063521;28;20232;-81
2021/11/27 11:38:21;;;;;;;3.60;2.22;;;5.80;99.90;;;;;;5061554;28;20201;-81
2021/11/27 11:40:48;;;;;;;1.58;1.40;;;5.80;99.90;;;;;;5060778;28;20205;-81
2021/11/27 11:43:15;;;;;;;1.52;1.42;;;5.70;99.90;;;;;;5066372;28;20233;-80
2021/11/27 11:45:42;;;;;;;3.50;1.58;;;5.80;99.90;;;;;;5065963;28;20232;-80
2021/11/27 11:48:09;;;;;;;2.33;1.70;;;6.00;99.90;;;;;;5070334;28;20229;-81
2021/11/27 11:50:40;;;;;;;1.17;1.13;;;6.30;99.90;;;;;;5062084;28;20206;-81
2021/11/27 11:53:13;;;;;;;1.27;1.25;;;6.40;99.90;;;;;;5065464;28;20280;-82
2021/11/27 11:55:52;;;;;;;2.10;1.90;;;6.30;99.90;;;;;;5061332;28;20221;-81
2021/11/27 11:58:32;;;;;;;1.15;1.13;;;6.30;99.90;;;;;;5060119;28;20196;-81
2021/11/27 12:01:03;;;;;;;3.28;2.10;;;6.30;99.90;;;;;;5065500;28;20208;-82
2021/11/27 12:03:35;;;;;;;1.58;1.42;;;6.10;99.90;;;;;;5067709;28;20206;-82
2021/11/27 12:06:05;;;;;;;3.50;1.45;;;5.90;99.90;;;;;;5072350;28;20213;-82
2021/11/27 12:09:02;;;;;;;2.03;1.92;;;6.00;99.90;;;;;;5075286;28;20601;-83
2021/11/27 12:11:58;;;;;;;1.10;1.10;;;5.90;99.90;;;;;;5056890;28;20193;-82
2021/11/27 12:14:59;;;;;;;1.60;1.50;;;6.10;99.90;;;;;;5045989;28;20206;-82
2021/11/27 12:17:27;;;;;;;2.45;1.80;;;6.00;99.90;;;;;;5053358;28;20274;-85
2021/11/27 12:19:55;;;;;;;1.25;1.15;;;6.00;99.90;;;;;;5062062;28;20193;-83
2021/11/27 12:22:42;;;;;;;1.10;1.00;;;6.10;99.90;;;;;;5060911;28;20248;-83
2021/11/27 12:25:26;;;;;;;1.70;1.13;;;6.00;99.90;;;;;;5059588;28;20198;-82
2021/11/27 12:28:15;;;;;;;0.98;0.98;;;5.80;99.90;;;;;;5058740;28;20234;-82
2021/11/27 12:31:08;;;;;;;1.40;1.30;;;5.70;99.90;;;;;;5059030;28;20232;-82
2021/11/27 12:33:57;;;;;;;1.30;1.20;;;5.80;99.90;;;;;;5058887;28;20214;-83
2021/11/27 12:36:43;;;;;;;2.00;1.90;;;5.70;99.90;;;;;;5059616;28;20236;-82
2021/11/27 12:39:13;;;;;;;1.20;1.20;;;5.70;99.90;;;;;;5060205;28;20252;-83
2021/11/27 12:41:44;;;;;;;1.27;1.20;;;5.90;99.90;;;;;;5058830;28;20230;-82
2021/11/27 12:44:21;;;;;;;2.05;1.85;;;6.30;99.90;;;;;;5059504;28;20217;-82
2021/11/27 12:46:51;;;;;;;0.70;0.70;;;6.70;99.90;;;;;;5058099;28;20221;-82
2021/11/27 12:49:52;;;;;;;0.88;0.80;;;6.80;99.90;;;;;;5059047;28;20255;-83
2021/11/27 12:52:41;;;;;;;1.38;0.90;;;6.90;99.90;;;;;;5043590;28;20213;-82
2021/11/27 12:55:31;;;;;;;1.77;0.90;;;6.70;99.90;;;;;;5058483;28;20210;-83
2021/11/27 12:58:01;;;;;;;0.93;0.93;;;6.60;99.90;;;;;;5058513;28;20224;-83
2021/11/27 13:00:28;;;;;;;1.25;1.15;;;6.40;99.90;;;;;;5057545;28;20220;-82
2021/11/27 13:02:59;;;;;;;1.33;1.27;;;6.10;99.90;;;;;;5058053;28;20205;-83
2021/11/27 13:05:28;;;;;;;1.63;1.45;;;6.00;99.90;;;;;;5059710;28;20220;-83
2021/11/27 13:07:55;;;;;;;0.85;0.85;;;5.80;99.90;;;;;;5059371;28;20206;-82